Time;durP1;ratioP1;P1;durP2;ratioP2;P2;SDS_P1;SDS_P2;PMS_P1;PMS_P2;Temp;Humidity;BMP_temperature;BMP_pressure;BME280_temperature;BME280_humidity;BME280_pressure;Samples;Min_cycle;Max_cycle;Signal;HPM_P1;HPM_P2
2023/08/20 00:00:30;;;;;;;19.13;10.60;;;18.70;99.90;;;;;;5073339;28;20420;-65
2023/08/20 00:03:03;;;;;;;16.87;11.63;;;18.60;99.90;;;;;;5072093;28;20535;-66
2023/08/20 00:05:29;;;;;;;19.30;10.70;;;18.60;99.90;;;;;;5073240;28;20897;-65
2023/08/20 00:07:55;;;;;;;18.03;10.57;;;18.50;99.90;;;;;;5074063;28;20835;-66
2023/08/20 00:10:21;;;;;;;22.33;11.10;;;18.50;99.90;;;;;;5072504;28;20421;-64
2023/08/20 00:12:47;;;;;;;16.33;10.50;;;18.40;99.90;;;;;;5074337;28;20170;-64
2023/08/20 00:15:12;;;;;;;14.90;9.80;;;18.40;99.90;;;;;;5073122;28;20163;-65
2023/08/20 00:17:40;;;;;;;12.97;9.70;;;18.40;99.90;;;;;;5073025;28;20186;-64
2023/08/20 00:20:12;;;;;;;16.43;10.43;;;18.40;99.90;;;;;;5073975;28;20221;-65
2023/08/20 00:22:39;;;;;;;21.73;10.77;;;18.40;99.90;;;;;;5073246;28;20499;-65
2023/08/20 00:25:06;;;;;;;15.00;9.50;;;18.40;99.90;;;;;;5070140;28;20770;-66
2023/08/20 00:27:32;;;;;;;18.70;10.93;;;18.30;99.90;;;;;;5073818;28;20939;-68
2023/08/20 00:29:58;;;;;;;17.73;10.47;;;18.30;99.90;;;;;;5073756;28;20397;-64
2023/08/20 00:32:24;;;;;;;15.43;10.80;;;18.20;99.90;;;;;;5067103;28;20786;-65
2023/08/20 00:34:49;;;;;;;14.70;10.07;;;18.20;99.90;;;;;;5053187;28;20401;-71
2023/08/20 00:37:15;;;;;;;20.10;10.37;;;18.30;99.90;;;;;;5052517;28;20699;-65
2023/08/20 00:39:41;;;;;;;17.50;10.80;;;18.30;99.90;;;;;;5054056;28;20636;-65
2023/08/20 00:42:07;;;;;;;23.60;11.03;;;18.20;99.90;;;;;;5053097;28;20174;-64
2023/08/20 00:44:34;;;;;;;14.20;9.23;;;18.20;99.90;;;;;;5063183;28;20206;-65
2023/08/20 00:47:02;;;;;;;15.90;10.37;;;18.20;99.90;;;;;;5072446;28;20400;-64
2023/08/20 00:49:29;;;;;;;20.80;10.10;;;18.10;99.90;;;;;;5073502;28;20419;-64
2023/08/20 00:51:55;;;;;;;15.60;10.17;;;18.10;99.90;;;;;;5072255;28;20439;-64
2023/08/20 00:54:22;;;;;;;15.43;11.27;;;18.10;99.90;;;;;;5071670;28;20452;-65
2023/08/20 00:56:50;;;;;;;22.73;10.40;;;18.10;99.90;;;;;;5071144;28;20424;-64
2023/08/20 00:59:16;;;;;;;18.80;11.13;;;18.00;99.90;;;;;;5072773;28;20404;-67
2023/08/20 01:01:43;;;;;;;22.10;10.73;;;18.00;99.90;;;;;;5073103;28;20423;-65
2023/08/20 01:04:09;;;;;;;17.50;9.77;;;18.00;99.90;;;;;;5062925;28;20457;-65
2023/08/20 01:07:02;;;;;;;20.60;11.17;;;17.90;99.90;;;;;;5051681;28;20448;-64
2023/08/20 01:09:36;;;;;;;17.00;11.17;;;18.00;99.90;;;;;;5058579;28;20420;-65
2023/08/20 01:12:03;;;;;;;13.10;9.97;;;17.90;99.90;;;;;;5064067;28;20420;-65
2023/08/20 01:14:29;;;;;;;22.00;10.43;;;17.80;99.90;;;;;;5072791;28;20411;-64
2023/08/20 01:16:55;;;;;;;18.47;11.00;;;17.80;99.90;;;;;;5071352;28;20881;-65
2023/08/20 01:19:22;;;;;;;21.23;10.30;;;17.80;99.90;;;;;;5054034;28;20451;-64
2023/08/20 01:22:15;;;;;;;20.27;11.20;;;17.80;99.90;;;;;;5072886;28;20171;-65
2023/08/20 01:24:54;;;;;;;18.13;10.80;;;17.80;99.90;;;;;;5071300;28;20499;-65
2023/08/20 01:27:27;;;;;;;21.87;9.90;;;17.80;99.90;;;;;;5069009;28;20854;-65
2023/08/20 01:29:55;;;;;;;28.83;10.90;;;17.80;99.90;;;;;;5051517;28;20448;-65
2023/08/20 01:32:22;;;;;;;22.93;10.97;;;17.80;99.90;;;;;;5052735;28;20840;-67
2023/08/20 01:34:48;;;;;;;14.70;9.57;;;17.80;99.90;;;;;;5051509;28;20490;-64
2023/08/20 01:37:14;;;;;;;14.83;8.97;;;17.80;99.90;;;;;;5050497;28;20429;-65
2023/08/20 01:39:40;;;;;;;14.73;9.27;;;17.80;99.90;;;;;;5055572;28;20428;-64
2023/08/20 01:42:06;;;;;;;21.47;9.63;;;17.80;99.90;;;;;;5072777;28;20245;-65
2023/08/20 01:44:31;;;;;;;10.40;9.30;;;17.80;99.90;;;;;;5071287;28;20602;-65
2023/08/20 01:46:57;;;;;;;15.67;8.97;;;17.80;99.90;;;;;;5071613;28;20412;-65
2023/08/20 01:49:23;;;;;;;13.83;10.00;;;17.70;99.90;;;;;;5071817;28;20327;-65
2023/08/20 01:51:49;;;;;;;11.50;10.07;;;17.70;99.90;;;;;;5071546;28;20416;-65
2023/08/20 01:54:14;;;;;;;19.33;10.23;;;17.70;99.90;;;;;;5072015;28;20178;-67
2023/08/20 01:56:40;;;;;;;23.00;11.53;;;17.70;99.90;;;;;;5070068;28;20260;-65
2023/08/20 01:59:06;;;;;;;20.83;10.63;;;17.70;99.90;;;;;;5072373;28;20225;-65
2023/08/20 02:01:32;;;;;;;16.90;10.03;;;17.70;99.90;;;;;;5063835;28;20182;-66
2023/08/20 02:03:57;;;;;;;15.30;9.00;;;17.60;99.90;;;;;;5052415;28;20213;-65
2023/08/20 02:06:23;;;;;;;18.20;11.20;;;17.60;99.90;;;;;;5051561;28;20170;-65
2023/08/20 02:08:49;;;;;;;19.13;11.10;;;17.60;99.90;;;;;;5052297;28;20539;-66
2023/08/20 02:11:14;;;;;;;14.50;9.40;;;17.60;99.90;;;;;;5064134;28;20182;-64
2023/08/20 02:13:40;;;;;;;26.67;9.90;;;17.50;99.90;;;;;;5054124;28;20193;-64
2023/08/20 02:16:06;;;;;;;14.13;10.27;;;17.50;99.90;;;;;;5051644;28;20229;-64
2023/08/20 02:18:32;;;;;;;21.00;13.63;;;17.50;99.90;;;;;;5052276;28;20191;-65
2023/08/20 02:20:58;;;;;;;18.07;11.27;;;17.50;99.90;;;;;;5050926;28;20906;-65
2023/08/20 02:23:24;;;;;;;22.03;12.67;;;17.60;99.90;;;;;;5052283;28;20544;-64
2023/08/20 02:25:50;;;;;;;22.40;12.63;;;17.70;99.90;;;;;;5058280;28;20508;-65
2023/08/20 02:28:15;;;;;;;21.77;14.07;;;17.70;99.90;;;;;;5055945;28;20656;-66
2023/08/20 02:30:46;;;;;;;20.57;14.00;;;17.80;99.90;;;;;;5056175;28;20167;-64
2023/08/20 02:33:12;;;;;;;22.83;14.50;;;17.80;99.90;;;;;;5054366;28;20178;-66
2023/08/20 02:35:38;;;;;;;23.17;12.30;;;17.80;99.90;;;;;;5055124;28;20488;-64
2023/08/20 02:38:05;;;;;;;21.87;12.30;;;17.80;99.90;;;;;;5058039;28;20809;-66
2023/08/20 02:40:31;;;;;;;18.67;10.90;;;17.80;99.90;;;;;;5075861;28;20411;-64
2023/08/20 02:42:57;;;;;;;22.20;12.50;;;17.90;99.90;;;;;;5075711;28;20592;-64
2023/08/20 02:45:23;;;;;;;26.80;13.50;;;17.90;99.90;;;;;;5073904;28;20420;-64
2023/08/20 02:47:49;;;;;;;18.67;12.83;;;17.90;99.90;;;;;;5075643;28;20428;-64
2023/08/20 02:50:15;;;;;;;24.03;13.73;;;17.90;99.90;;;;;;5075218;28;20166;-65
2023/08/20 02:52:45;;;;;;;29.00;14.87;;;17.90;99.90;;;;;;5074199;28;20428;-64
2023/08/20 02:55:10;;;;;;;26.13;13.87;;;17.90;99.90;;;;;;5074574;28;20193;-65
2023/08/20 02:57:36;;;;;;;27.67;12.37;;;17.90;99.90;;;;;;5074107;28;20432;-65
2023/08/20 03:00:02;;;;;;;32.30;14.17;;;17.90;99.90;;;;;;5075718;28;20169;-65
2023/08/20 03:02:28;;;;;;;26.53;12.33;;;17.90;99.90;;;;;;5075514;28;20158;-65
2023/08/20 03:04:55;;;;;;;27.27;13.87;;;17.90;99.90;;;;;;5075158;28;20984;-67
2023/08/20 03:07:22;;;;;;;30.57;12.90;;;17.90;1.00;;;;;;5073102;28;20200;-67
2023/08/20 03:09:48;;;;;;;22.90;13.07;;;17.90;1.00;;;;;;5062903;28;20433;-65
2023/08/20 03:12:14;;;;;;;27.73;12.23;;;17.90;1.00;;;;;;5054960;28;20428;-65
2023/08/20 03:14:39;;;;;;;22.93;12.40;;;17.90;1.00;;;;;;5055323;28;20175;-64
2023/08/20 03:17:05;;;;;;;25.30;13.23;;;18.00;1.00;;;;;;5054290;28;20217;-64
2023/08/20 03:19:35;;;;;;;26.20;11.23;;;18.00;1.00;;;;;;5055630;28;20190;-66
2023/08/20 03:22:00;;;;;;;30.77;11.90;;;18.00;1.00;;;;;;5061889;28;20190;-64
2023/08/20 03:24:26;;;;;;;25.60;13.30;;;18.00;1.00;;;;;;5074994;28;20802;-65
2023/08/20 03:26:51;;;;;;;24.80;12.47;;;18.10;1.00;;;;;;5074173;28;20171;-67
2023/08/20 03:29:17;;;;;;;20.80;11.53;;;18.10;1.00;;;;;;5061973;28;20262;-65
2023/08/20 03:31:43;;;;;;;20.83;12.83;;;18.00;1.00;;;;;;5052617;28;20183;-64
2023/08/20 03:34:09;;;;;;;19.40;11.70;;;18.00;1.00;;;;;;5054635;28;20191;-64
2023/08/20 03:36:35;;;;;;;30.80;13.60;;;18.00;1.00;;;;;;5055069;28;20512;-65
2023/08/20 03:39:01;;;;;;;19.77;13.80;;;18.00;1.00;;;;;;5074743;28;20428;-65
2023/08/20 03:41:26;;;;;;;20.83;12.60;;;17.90;1.00;;;;;;5074811;28;20400;-65
2023/08/20 03:43:52;;;;;;;18.10;11.33;;;17.90;1.00;;;;;;5073661;28;20206;-65
2023/08/20 03:46:18;;;;;;;19.60;11.20;;;17.90;1.00;;;;;;5073786;28;20167;-64
2023/08/20 03:48:43;;;;;;;22.40;12.23;;;17.90;1.00;;;;;;5074185;28;20194;-64
2023/08/20 03:51:09;;;;;;;21.40;11.70;;;17.90;1.00;;;;;;5073509;28;20265;-64
2023/08/20 03:53:35;;;;;;;24.60;11.87;;;17.90;1.00;;;;;;5072913;28;20194;-66
2023/08/20 03:56:00;;;;;;;25.33;11.63;;;17.90;1.00;;;;;;5073653;28;20228;-65
2023/08/20 03:58:26;;;;;;;18.67;11.47;;;17.90;1.00;;;;;;5074333;28;20208;-64
2023/08/20 04:00:52;;;;;;;22.90;11.33;;;17.90;1.00;;;;;;5074494;28;20615;-65
2023/08/20 04:03:19;;;;;;;17.13;12.37;;;18.00;1.00;;;;;;5074291;28;20193;-67
2023/08/20 04:05:45;;;;;;;15.77;12.50;;;18.00;1.00;;;;;;5068805;28;20189;-65
2023/08/20 04:08:10;;;;;;;18.77;12.17;;;18.00;1.00;;;;;;5052968;28;20437;-68
2023/08/20 04:10:44;;;;;;;18.83;11.60;;;18.00;1.00;;;;;;5054188;28;20170;-65
2023/08/20 04:13:09;;;;;;;18.80;12.67;;;17.90;1.00;;;;;;5053745;28;20179;-65
2023/08/20 04:15:35;;;;;;;18.40;12.30;;;18.00;1.00;;;;;;5051907;28;20417;-66
2023/08/20 04:18:01;;;;;;;22.73;11.57;;;18.00;1.00;;;;;;5052940;28;20203;-64
2023/08/20 04:20:26;;;;;;;25.67;12.17;;;18.00;1.00;;;;;;5060757;28;20317;-64
2023/08/20 04:22:52;;;;;;;21.23;11.73;;;18.00;1.00;;;;;;5060629;28;20182;-65
2023/08/20 04:25:18;;;;;;;20.60;12.80;;;18.00;1.00;;;;;;5051824;28;20183;-65
2023/08/20 04:27:43;;;;;;;23.13;12.00;;;18.00;1.00;;;;;;5053720;28;20194;-66
2023/08/20 04:30:10;;;;;;;26.03;11.70;;;18.00;1.00;;;;;;5053835;28;20670;-65
2023/08/20 04:32:35;;;;;;;17.80;11.43;;;17.90;1.00;;;;;;5057900;28;20182;-68
2023/08/20 04:35:01;;;;;;;18.03;10.00;;;17.80;1.00;;;;;;5066216;28;20527;-68
2023/08/20 04:37:27;;;;;;;19.73;12.30;;;17.80;1.00;;;;;;5073403;28;20200;-65
2023/08/20 04:39:52;;;;;;;11.80;9.73;;;17.80;1.00;;;;;;5072109;28;20643;-64
2023/08/20 04:42:18;;;;;;;19.10;11.03;;;17.80;1.00;;;;;;5073206;28;20166;-65
2023/08/20 04:44:44;;;;;;;19.90;11.70;;;17.80;1.00;;;;;;5072304;28;20681;-65
2023/08/20 04:47:13;;;;;;;23.37;12.77;;;17.80;1.00;;;;;;5057422;28;20202;-64
2023/08/20 04:49:39;;;;;;;17.57;11.10;;;17.90;1.00;;;;;;5058708;28;20539;-66
2023/08/20 04:52:05;;;;;;;26.03;11.37;;;18.00;1.00;;;;;;5073383;28;20478;-64
2023/08/20 04:54:30;;;;;;;19.70;11.50;;;18.00;1.00;;;;;;5072202;28;20486;-66
2023/08/20 04:56:56;;;;;;;24.13;12.10;;;18.00;1.00;;;;;;5072383;28;20174;-65
2023/08/20 04:59:22;;;;;;;20.43;12.70;;;18.00;1.00;;;;;;5069403;28;20183;-65
2023/08/20 05:01:48;;;;;;;20.87;13.40;;;18.10;1.00;;;;;;5052841;28;20186;-65
2023/08/20 05:04:13;;;;;;;17.47;12.03;;;18.00;1.00;;;;;;5053281;28;20536;-69
2023/08/20 05:06:39;;;;;;;24.70;12.60;;;18.00;1.00;;;;;;5072334;28;20170;-64
2023/08/20 05:09:05;;;;;;;31.63;10.97;;;18.00;1.00;;;;;;5073042;28;20193;-64
2023/08/20 05:11:32;;;;;;;18.57;12.07;;;18.00;1.00;;;;;;5073212;28;20193;-68
2023/08/20 05:13:58;;;;;;;15.70;10.23;;;18.00;1.00;;;;;;5066004;28;20182;-65
2023/08/20 05:16:24;;;;;;;22.30;10.40;;;18.00;1.00;;;;;;5071727;28;20405;-66
2023/08/20 05:18:50;;;;;;;32.33;7.73;;;18.00;1.00;;;;;;5072635;28;20267;-66
2023/08/20 05:21:15;;;;;;;18.50;7.90;;;18.00;99.90;;;;;;5071405;28;20182;-64
2023/08/20 05:23:41;;;;;;;22.00;9.70;;;17.90;99.90;;;;;;5072861;28;20198;-65
2023/08/20 05:26:07;;;;;;;27.50;8.30;;;17.90;99.90;;;;;;5072132;28;20166;-64
2023/08/20 05:28:34;;;;;;;22.00;7.97;;;17.80;99.90;;;;;;5071142;28;20217;-64
2023/08/20 05:31:00;;;;;;;18.77;9.20;;;17.80;99.90;;;;;;5072703;28;20401;-64
2023/08/20 05:33:26;;;;;;;20.17;8.30;;;17.80;99.90;;;;;;5071130;28;20413;-65
2023/08/20 05:35:52;;;;;;;17.43;9.40;;;17.80;99.90;;;;;;5063181;28;20648;-64
2023/08/20 05:38:18;;;;;;;15.87;7.70;;;17.80;99.90;;;;;;5052628;28;20428;-65
2023/08/20 05:40:43;;;;;;;14.67;7.20;;;17.80;99.90;;;;;;5051640;28;20266;-64
2023/08/20 05:43:09;;;;;;;14.30;8.93;;;17.70;99.90;;;;;;5062975;28;20724;-65
2023/08/20 05:45:35;;;;;;;14.50;8.87;;;17.60;99.90;;;;;;5071467;28;20193;-66
2023/08/20 05:48:01;;;;;;;14.07;9.60;;;17.50;99.90;;;;;;5072647;28;20421;-64
2023/08/20 05:50:27;;;;;;;12.20;8.87;;;17.50;99.90;;;;;;5070749;28;20206;-65
2023/08/20 05:52:53;;;;;;;11.43;9.07;;;17.50;99.90;;;;;;5072063;28;20427;-72
2023/08/20 05:55:19;;;;;;;10.37;7.90;;;17.50;99.90;;;;;;5071744;28;20174;-66
2023/08/20 05:57:45;;;;;;;12.13;8.63;;;17.60;99.90;;;;;;5071561;28;20475;-65
2023/08/20 06:00:11;;;;;;;12.93;9.10;;;17.50;99.90;;;;;;5072596;28;20166;-70
2023/08/20 06:02:37;;;;;;;15.83;9.60;;;17.60;99.90;;;;;;5075006;28;20424;-64
2023/08/20 06:05:04;;;;;;;13.10;9.80;;;17.60;99.90;;;;;;5074851;28;20844;-75
2023/08/20 06:07:30;;;;;;;9.20;7.73;;;17.70;1.00;;;;;;5056462;28;20429;-65
2023/08/20 06:09:56;;;;;;;11.53;8.93;;;17.70;99.90;;;;;;5055973;28;20484;-64
2023/08/20 06:12:23;;;;;;;15.40;9.03;;;17.70;99.90;;;;;;5056450;28;20539;-66
2023/08/20 06:14:49;;;;;;;14.40;9.13;;;17.70;1.00;;;;;;5056244;28;20835;-74
2023/08/20 06:17:15;;;;;;;11.60;8.30;;;17.70;1.00;;;;;;5055514;28;20500;-64
2023/08/20 06:19:41;;;;;;;12.33;9.00;;;17.70;1.00;;;;;;5059972;28;20539;-65
2023/08/20 06:22:06;;;;;;;17.67;9.40;;;17.80;1.00;;;;;;5076390;28;20400;-65
2023/08/20 06:24:32;;;;;;;15.03;9.93;;;17.80;1.00;;;;;;5074667;28;20233;-66
2023/08/20 06:26:58;;;;;;;9.70;8.50;;;17.90;1.00;;;;;;5074700;28;20249;-66
2023/08/20 06:29:24;;;;;;;11.77;9.33;;;17.90;1.00;;;;;;5076189;28;20171;-67
2023/08/20 06:31:50;;;;;;;13.60;8.80;;;17.90;1.00;;;;;;5076287;28;20689;-64
2023/08/20 06:34:16;;;;;;;12.20;8.43;;;18.00;1.00;;;;;;5068752;28;20229;-65
2023/08/20 06:36:42;;;;;;;16.03;9.03;;;18.10;1.00;;;;;;5053700;28;20441;-65
2023/08/20 06:39:08;;;;;;;20.90;9.83;;;18.10;99.90;;;;;;5058037;28;20499;-64
2023/08/20 06:41:35;;;;;;;13.93;8.40;;;18.10;99.90;;;;;;5055864;28;20244;-66
2023/08/20 06:44:01;;;;;;;13.60;8.93;;;18.20;99.90;;;;;;5053951;28;20869;-64
2023/08/20 06:46:27;;;;;;;17.40;9.50;;;18.30;99.90;;;;;;5054833;28;20481;-65
2023/08/20 06:48:52;;;;;;;22.90;9.27;;;18.40;99.90;;;;;;5054094;28;20529;-73
2023/08/20 06:51:22;;;;;;;14.80;8.60;;;18.40;99.90;;;;;;5075684;28;20178;-64
2023/08/20 06:53:48;;;;;;;11.97;7.93;;;18.50;99.90;;;;;;5075038;28;20189;-64
2023/08/20 06:56:14;;;;;;;18.43;8.90;;;18.50;99.90;;;;;;5073564;28;20458;-70
2023/08/20 06:58:41;;;;;;;16.83;8.13;;;18.60;99.90;;;;;;5073337;28;20808;-65
2023/08/20 07:01:07;;;;;;;15.20;8.87;;;18.60;99.90;;;;;;5074154;28;20174;-65
2023/08/20 07:03:34;;;;;;;15.27;8.30;;;18.60;99.90;;;;;;5070907;28;20460;-67
2023/08/20 07:06:00;;;;;;;13.67;9.40;;;18.70;99.90;;;;;;5056450;28;20443;-65
2023/08/20 07:08:26;;;;;;;18.73;9.37;;;18.80;99.90;;;;;;5054057;28;20429;-65
2023/08/20 07:10:52;;;;;;;23.10;9.33;;;18.80;99.90;;;;;;5054271;28;20448;-66
2023/08/20 07:13:17;;;;;;;18.67;9.20;;;18.80;99.90;;;;;;5053701;28;20179;-67
2023/08/20 07:15:43;;;;;;;20.47;10.63;;;18.80;99.90;;;;;;5053243;28;20245;-67
2023/08/20 07:18:12;;;;;;;12.60;9.80;;;18.70;99.90;;;;;;5055388;28;20234;-67
2023/08/20 07:20:39;;;;;;;18.97;10.37;;;18.80;99.90;;;;;;5056137;28;20178;-66
2023/08/20 07:23:04;;;;;;;15.00;10.17;;;19.00;99.90;;;;;;5053894;28;20498;-67
2023/08/20 07:25:30;;;;;;;17.13;10.97;;;19.10;99.90;;;;;;5052727;28;20405;-67
2023/08/20 07:27:59;;;;;;;23.47;11.57;;;19.10;99.90;;;;;;5056853;28;20243;-64
2023/08/20 07:30:25;;;;;;;21.27;11.23;;;19.10;99.90;;;;;;5073950;28;20200;-65
2023/08/20 07:32:51;;;;;;;26.77;12.27;;;19.10;99.90;;;;;;5071549;28;20491;-67
2023/08/20 07:35:17;;;;;;;24.97;14.37;;;19.10;99.90;;;;;;5051506;28;20921;-65
2023/08/20 07:37:42;;;;;;;25.73;14.30;;;19.20;99.90;;;;;;5052102;28;20184;-65
2023/08/20 07:40:09;;;;;;;23.60;12.97;;;19.10;99.90;;;;;;5053256;28;20166;-66
2023/08/20 07:42:36;;;;;;;26.30;12.40;;;19.30;99.90;;;;;;5053678;28;20296;-66
2023/08/20 07:45:02;;;;;;;18.33;12.90;;;19.40;99.90;;;;;;5051729;28;20449;-73
2023/08/20 07:47:29;;;;;;;17.40;12.17;;;19.30;99.90;;;;;;5053175;28;20532;-67
2023/08/20 07:49:55;;;;;;;24.53;11.50;;;19.30;99.90;;;;;;5053567;28;20397;-66
2023/08/20 07:52:21;;;;;;;17.13;9.23;;;19.40;99.90;;;;;;5053503;28;20393;-66
2023/08/20 07:54:46;;;;;;;21.60;10.00;;;19.30;99.90;;;;;;5011067;28;1224393;-65
2023/08/20 07:57:12;;;;;;;21.63;10.00;;;19.40;99.90;;;;;;5053346;28;20240;-66
2023/08/20 07:59:38;;;;;;;15.93;9.43;;;19.50;99.90;;;;;;5053271;28;20178;-68
2023/08/20 08:02:04;;;;;;;20.60;9.70;;;19.50;99.90;;;;;;5053401;28;20186;-65
2023/08/20 08:04:29;;;;;;;16.07;9.90;;;19.50;99.90;;;;;;5054315;28;20866;-66
2023/08/20 08:06:55;;;;;;;13.47;8.90;;;19.50;99.90;;;;;;5053009;28;20179;-66
2023/08/20 08:09:29;;;;;;;17.97;8.03;;;19.50;99.90;;;;;;5053823;28;20212;-69
2023/08/20 08:11:55;;;;;;;16.03;8.27;;;19.60;99.90;;;;;;5052354;28;20571;-66
2023/08/20 08:14:20;;;;;;;9.70;6.00;;;19.70;99.90;;;;;;5054170;28;20406;-68
2023/08/20 08:16:46;;;;;;;9.67;6.27;;;19.70;99.90;;;;;;5052837;28;20202;-66
2023/08/20 08:19:12;;;;;;;14.20;5.60;;;19.90;99.90;;;;;;5054110;28;20186;-66
2023/08/20 08:21:39;;;;;;;10.60;5.37;;;19.90;99.90;;;;;;5053877;28;20496;-66
2023/08/20 08:24:05;;;;;;;15.63;6.60;;;19.90;99.90;;;;;;5053097;28;20652;-65
2023/08/20 08:26:35;;;;;;;14.00;5.70;;;20.10;99.90;;;;;;5055050;28;20436;-67
2023/08/20 08:29:01;;;;;;;8.23;4.80;;;20.20;99.90;;;;;;5073755;28;20420;-65
2023/08/20 08:31:27;;;;;;;10.17;5.40;;;20.20;99.90;;;;;;5065852;28;20568;-66
2023/08/20 08:33:52;;;;;;;7.47;5.07;;;20.30;99.90;;;;;;5053787;28;20880;-67
2023/08/20 08:36:18;;;;;;;7.07;5.13;;;20.50;99.90;;;;;;5052818;28;20575;-66
2023/08/20 08:38:44;;;;;;;15.13;5.13;;;20.60;71.10;;;;;;5052598;28;20194;-67
2023/08/20 08:41:12;;;;;;;14.20;5.43;;;20.70;6.10;;;;;;5062681;28;20178;-65
2023/08/20 08:43:39;;;;;;;11.63;5.13;;;20.90;1.00;;;;;;5073477;28;20555;-70
2023/08/20 08:46:15;;;;;;;11.50;4.90;;;20.90;1.00;;;;;;5069262;28;20427;-67
2023/08/20 08:48:43;;;;;;;8.00;4.20;;;21.00;1.00;;;;;;5053020;28;20917;-68
2023/08/20 08:51:09;;;;;;;9.40;5.83;;;21.00;1.00;;;;;;5053037;28;20408;-75
2023/08/20 08:53:35;;;;;;;18.17;4.60;;;21.20;1.00;;;;;;5052108;28;20837;-68
2023/08/20 08:56:03;;;;;;;14.53;4.97;;;21.30;1.00;;;;;;5052654;28;20492;-67
2023/08/20 08:58:29;;;;;;;9.27;4.00;;;21.50;1.00;;;;;;5053246;28;20472;-65
2023/08/20 09:00:55;;;;;;;14.10;4.97;;;21.70;1.00;;;;;;5053253;28;20413;-72
2023/08/20 09:03:20;;;;;;;11.30;4.70;;;22.00;1.00;;;;;;5053604;28;20214;-68
2023/08/20 09:05:54;;;;;;;7.70;4.40;;;22.10;99.90;;;;;;5052120;28;20397;-70
2023/08/20 09:08:27;;;;;;;11.10;3.97;;;22.10;99.90;;;;;;5052676;28;20613;-68
2023/08/20 09:10:55;;;;;;;11.13;4.60;;;22.30;99.90;;;;;;5053155;28;20425;-70
2023/08/20 09:13:38;;;;;;;10.83;4.47;;;22.10;99.90;;;;;;5053159;28;20406;-66
2023/08/20 09:16:11;;;;;;;6.77;3.50;;;22.10;99.90;;;;;;5060066;28;20436;-66
2023/08/20 09:18:41;;;;;;;11.10;3.40;;;22.30;99.90;;;;;;5072976;28;20421;-66
2023/08/20 09:21:11;;;;;;;4.20;3.00;;;22.10;99.90;;;;;;5069162;28;20429;-68
2023/08/20 09:23:38;;;;;;;5.33;2.83;;;22.00;99.90;;;;;;5052623;28;20461;-67
2023/08/20 09:26:05;;;;;;;7.20;3.53;;;21.70;99.90;;;;;;5051813;28;20433;-66
2023/08/20 09:28:45;;;;;;;9.57;4.17;;;21.60;99.90;;;;;;5052600;28;20451;-66
2023/08/20 09:31:12;;;;;;;10.63;2.80;;;22.00;99.90;;;;;;5052675;28;20429;-66
2023/08/20 09:33:52;;;;;;;6.13;2.60;;;22.40;99.90;;;;;;5051826;28;20444;-68
2023/08/20 09:36:18;;;;;;;9.13;3.13;;;22.70;99.90;;;;;;5051649;28;20409;-67
2023/08/20 09:38:44;;;;;;;5.90;2.50;;;22.80;99.90;;;;;;5052684;28;20429;-68
2023/08/20 09:41:12;;;;;;;5.20;2.33;;;22.90;99.90;;;;;;5057181;28;20436;-71
2023/08/20 09:43:38;;;;;;;4.00;2.50;;;23.30;99.90;;;;;;5072667;28;20452;-68
2023/08/20 09:46:05;;;;;;;3.33;1.60;;;23.70;99.90;;;;;;5068179;28;20473;-68
2023/08/20 09:48:38;;;;;;;6.13;2.20;;;23.90;99.90;;;;;;5051427;28;20425;-69
2023/08/20 09:51:11;;;;;;;4.57;2.10;;;24.00;97.20;;;;;;5052580;28;20496;-66
2023/08/20 09:54:09;;;;;;;4.13;1.83;;;24.30;97.30;;;;;;5052338;28;20514;-68
2023/08/20 09:56:39;;;;;;;6.27;2.20;;;24.60;97.40;;;;;;5066706;28;20440;-66
2023/08/20 09:59:05;;;;;;;7.37;2.43;;;25.10;85.20;;;;;;5071178;28;20519;-68
2023/08/20 10:01:31;;;;;;;8.40;2.47;;;25.40;42.00;;;;;;5067323;28;20436;-71
2023/08/20 10:03:57;;;;;;;6.13;2.33;;;25.70;19.90;;;;;;5052341;28;20457;-66
2023/08/20 10:06:26;;;;;;;6.17;2.07;;;25.90;8.60;;;;;;5051559;28;20890;-67
2023/08/20 10:08:53;;;;;;;6.20;2.57;;;25.80;1.00;;;;;;5052392;28;20190;-69
2023/08/20 10:11:19;;;;;;;9.23;2.20;;;25.80;1.00;;;;;;5056908;28;20899;-68
2023/08/20 10:13:45;;;;;;;7.27;1.73;;;25.70;1.00;;;;;;5072378;28;20432;-66
2023/08/20 10:16:19;;;;;;;3.67;1.60;;;25.40;1.00;;;;;;5069357;28;20170;-70
2023/08/20 10:18:46;;;;;;;6.93;2.37;;;24.50;1.00;;;;;;5051532;28;20198;-69
2023/08/20 10:21:13;;;;;;;3.07;1.83;;;24.40;1.00;;;;;;5052404;28;20405;-68
2023/08/20 10:23:44;;;;;;;2.83;2.00;;;24.90;1.00;;;;;;5052302;28;20543;-66
2023/08/20 10:26:11;;;;;;;8.13;1.90;;;25.50;1.00;;;;;;5051614;28;20393;-68
2023/08/20 10:28:37;;;;;;;4.70;1.80;;;26.20;1.00;;;;;;5052501;28;20449;-70
2023/08/20 10:31:11;;;;;;;3.23;1.60;;;26.70;1.00;;;;;;5051700;28;20433;-65
2023/08/20 10:33:57;;;;;;;4.63;1.88;;;27.20;1.00;;;;;;5071095;28;20410;-68
2023/08/20 10:36:33;;;;;;;3.43;1.73;;;27.10;1.00;;;;;;5070812;28;20481;-69
2023/08/20 10:39:05;;;;;;;4.10;1.90;;;26.70;1.00;;;;;;5072035;28;20516;-71
2023/08/20 10:41:30;;;;;;;6.63;1.90;;;26.30;1.00;;;;;;5070569;28;20428;-72
2023/08/20 10:44:00;;;;;;;7.83;2.10;;;25.70;1.00;;;;;;5072021;28;20459;-69
2023/08/20 10:46:34;;;;;;;5.27;2.10;;;25.50;1.00;;;;;;5069826;28;20173;-77
2023/08/20 10:49:02;;;;;;;5.33;2.23;;;25.90;1.00;;;;;;5055112;28;20506;-71
2023/08/20 10:51:32;;;;;;;2.33;1.80;;;25.90;1.00;;;;;;5055886;28;20397;-71
2023/08/20 10:54:00;;;;;;;2.50;1.90;;;25.60;1.00;;;;;;5053670;28;20424;-70
2023/08/20 10:56:41;;;;;;;4.47;1.87;;;25.70;1.00;;;;;;5054061;28;20425;-69
2023/08/20 10:59:26;;;;;;;8.70;2.47;;;26.10;1.00;;;;;;5055543;28;20439;-70
2023/08/20 11:01:54;;;;;;;2.80;1.70;;;26.50;1.00;;;;;;5055702;28;20423;-71
2023/08/20 11:04:21;;;;;;;3.07;1.47;;;26.50;1.00;;;;;;5075356;28;20444;-71
2023/08/20 11:06:53;;;;;;;2.23;1.43;;;26.60;1.00;;;;;;5074610;28;20907;-72
2023/08/20 11:09:19;;;;;;;4.43;1.80;;;26.70;1.00;;;;;;5075421;28;20897;-72
2023/08/20 11:11:45;;;;;;;5.87;2.23;;;27.10;1.00;;;;;;5073459;28;20522;-70
2023/08/20 11:14:14;;;;;;;4.93;2.13;;;27.40;1.00;;;;;;5075025;28;20170;-69
2023/08/20 11:16:41;;;;;;;3.53;2.10;;;27.30;1.00;;;;;;5074544;28;20193;-69
2023/08/20 11:19:10;;;;;;;3.97;2.30;;;27.60;1.00;;;;;;5070978;28;20448;-72
2023/08/20 11:21:40;;;;;;;3.80;1.87;;;28.20;1.00;;;;;;5055135;28;20401;-75
2023/08/20 11:24:06;;;;;;;3.00;1.67;;;28.50;1.00;;;;;;5053916;28;20977;-70
2023/08/20 11:26:38;;;;;;;3.80;1.50;;;28.20;1.00;;;;;;5054261;28;20444;-70
2023/08/20 11:29:12;;;;;;;2.80;1.93;;;27.70;1.00;;;;;;5055761;28;20532;-70
2023/08/20 11:31:38;;;;;;;6.30;1.83;;;27.30;1.00;;;;;;5054069;28;20437;-68
2023/08/20 11:34:04;;;;;;;3.97;1.87;;;26.90;1.00;;;;;;5069331;28;20440;-70
2023/08/20 11:36:31;;;;;;;6.37;1.97;;;26.40;1.00;;;;;;5074156;28;20408;-68
2023/08/20 11:38:57;;;;;;;7.03;1.80;;;25.80;1.00;;;;;;5074828;28;20424;-70
2023/08/20 11:41:24;;;;;;;5.30;2.47;;;25.60;1.00;;;;;;5067443;28;20790;-69
2023/08/20 11:43:51;;;;;;;4.97;2.20;;;25.50;1.00;;;;;;5054662;28;20190;-69
2023/08/20 11:46:19;;;;;;;3.93;2.10;;;25.40;1.00;;;;;;5052498;28;20420;-72
2023/08/20 11:49:07;;;;;;;5.90;2.10;;;25.40;1.00;;;;;;5052988;28;20441;-69
2023/08/20 11:52:03;;;;;;;2.80;1.83;;;25.80;1.00;;;;;;5061904;28;20424;-72
2023/08/20 11:54:32;;;;;;;2.63;1.73;;;26.70;1.00;;;;;;5072132;28;20490;-69
2023/08/20 11:57:03;;;;;;;2.53;1.70;;;27.40;1.00;;;;;;5072265;28;20409;-70
2023/08/20 11:59:29;;;;;;;2.70;2.00;;;27.50;1.00;;;;;;5073355;28;21032;-72
2023/08/20 12:02:05;;;;;;;5.03;2.57;;;27.00;1.00;;;;;;5074444;28;20412;-69
2023/08/20 12:04:31;;;;;;;4.87;1.93;;;26.60;1.00;;;;;;5071535;28;20197;-69
2023/08/20 12:07:13;;;;;;;5.27;1.93;;;26.20;1.00;;;;;;5073278;28;20841;-69
2023/08/20 12:09:39;;;;;;;4.30;2.17;;;26.70;1.00;;;;;;5073819;28;20423;-69
2023/08/20 12:12:07;;;;;;;4.00;1.70;;;27.80;1.00;;;;;;5074449;28;20404;-69
2023/08/20 12:14:37;;;;;;;5.13;1.87;;;29.00;1.00;;;;;;5056306;28;20423;-69
2023/08/20 12:17:05;;;;;;;4.13;1.80;;;29.40;1.00;;;;;;5071635;28;20424;-69
2023/08/20 12:19:31;;;;;;;6.40;2.47;;;29.50;1.00;;;;;;5074031;28;20883;-70
2023/08/20 12:21:57;;;;;;;4.70;1.67;;;29.80;1.00;;;;;;5070729;28;20549;-69
2023/08/20 12:24:22;;;;;;;4.53;1.73;;;29.90;1.00;;;;;;5053700;28;20616;-68
2023/08/20 12:26:48;;;;;;;2.43;1.53;;;29.70;1.00;;;;;;5053111;28;20654;-71
2023/08/20 12:29:14;;;;;;;5.70;1.50;;;29.30;1.00;;;;;;5053394;28;20178;-70
2023/08/20 12:31:40;;;;;;;2.50;1.63;;;29.00;1.00;;;;;;5054203;28;20580;-69
2023/08/20 12:34:06;;;;;;;6.37;1.40;;;28.50;1.00;;;;;;5073088;28;20185;-70
2023/08/20 12:36:32;;;;;;;4.82;1.80;;;28.20;1.00;;;;;;5072077;28;20794;-70
2023/08/20 12:38:57;;;;;;;2.60;1.30;;;28.10;1.00;;;;;;5071249;28;20259;-69
2023/08/20 12:41:23;;;;;;;3.67;1.70;;;28.30;1.00;;;;;;5067680;28;20649;-69